sensor_id;sensor_type;location;lat;lon;timestamp;pressure;altitude;pressure_sealevel;temperature;humidity
19736;BME280;32064;49.310;8.646;2024-02-26T00:01:37;98588.06;;;12.90;51.00
19736;BME280;32064;49.310;8.646;2024-02-26T00:04:02;98584.47;;;12.50;52.97
19736;BME280;32064;49.310;8.646;2024-02-26T00:06:29;98595.84;;;12.75;51.41
19736;BME280;32064;49.310;8.646;2024-02-26T00:08:55;98593.00;;;12.85;52.14
19736;BME280;32064;49.310;8.646;2024-02-26T00:11:20;98583.13;;;12.70;52.05
19736;BME280;32064;49.310;8.646;2024-02-26T00:13:45;98591.56;;;12.74;53.03
19736;BME280;32064;49.310;8.646;2024-02-26T00:16:11;98590.72;;;12.73;52.14
19736;BME280;32064;49.310;8.646;2024-02-26T00:18:36;98587.94;;;12.75;52.75
19736;BME280;32064;49.310;8.646;2024-02-26T00:21:02;98594.03;;;12.75;52.49
19736;BME280;32064;49.310;8.646;2024-02-26T00:23:27;98597.31;;;12.77;51.33
19736;BME280;32064;49.310;8.646;2024-02-26T00:25:53;98606.72;;;12.80;52.08
19736;BME280;32064;49.310;8.646;2024-02-26T00:28:18;98608.50;;;12.88;52.38
19736;BME280;32064;49.310;8.646;2024-02-26T00:30:45;98613.97;;;12.86;51.29
19736;BME280;32064;49.310;8.646;2024-02-26T00:33:11;98618.72;;;12.91;51.69
19736;BME280;32064;49.310;8.646;2024-02-26T00:35:36;98617.75;;;12.84;51.98
19736;BME280;32064;49.310;8.646;2024-02-26T00:38:02;98625.19;;;12.88;52.85
19736;BME280;32064;49.310;8.646;2024-02-26T00:40:28;98628.66;;;12.97;52.25
19736;BME280;32064;49.310;8.646;2024-02-26T00:42:54;98617.91;;;12.98;51.14
19736;BME280;32064;49.310;8.646;2024-02-26T00:45:19;98612.13;;;12.95;51.46
19736;BME280;32064;49.310;8.646;2024-02-26T00:47:45;98619.06;;;12.96;52.07
19736;BME280;32064;49.310;8.646;2024-02-26T00:50:12;98625.81;;;12.98;51.41
19736;BME280;32064;49.310;8.646;2024-02-26T00:52:38;98628.13;;;12.93;52.84
19736;BME280;32064;49.310;8.646;2024-02-26T00:55:03;98625.00;;;12.90;52.84
19736;BME280;32064;49.310;8.646;2024-02-26T00:57:29;98621.88;;;12.94;52.60
19736;BME280;32064;49.310;8.646;2024-02-26T00:59:54;98626.34;;;12.86;52.59
19736;BME280;32064;49.310;8.646;2024-02-26T01:02:21;98627.16;;;12.94;52.88
19736;BME280;32064;49.310;8.646;2024-02-26T01:04:47;98628.81;;;12.87;53.02
19736;BME280;32064;49.310;8.646;2024-02-26T01:07:13;98633.75;;;12.90;51.82
19736;BME280;32064;49.310;8.646;2024-02-26T01:09:38;98640.84;;;12.90;52.59
19736;BME280;32064;49.310;8.646;2024-02-26T01:12:03;98632.25;;;12.88;52.51
19736;BME280;32064;49.310;8.646;2024-02-26T01:14:29;98634.25;;;12.86;52.06
19736;BME280;32064;49.310;8.646;2024-02-26T01:16:54;98638.88;;;12.84;52.12
19736;BME280;32064;49.310;8.646;2024-02-26T01:19:20;98642.50;;;12.83;52.85
19736;BME280;32064;49.310;8.646;2024-02-26T01:21:46;98646.94;;;12.90;52.51
19736;BME280;32064;49.310;8.646;2024-02-26T01:24:11;98647.63;;;12.84;53.52
19736;BME280;32064;49.310;8.646;2024-02-26T01:26:36;98657.69;;;12.89;53.21
19736;BME280;32064;49.310;8.646;2024-02-26T01:29:02;98649.75;;;12.89;53.26
19736;BME280;32064;49.310;8.646;2024-02-26T01:31:27;98654.38;;;12.78;53.05
19736;BME280;32064;49.310;8.646;2024-02-26T01:33:53;98656.03;;;12.79;53.26
19736;BME280;32064;49.310;8.646;2024-02-26T01:36:18;98654.72;;;12.84;52.56
19736;BME280;32064;49.310;8.646;2024-02-26T01:38:43;98653.38;;;12.88;53.55
19736;BME280;32064;49.310;8.646;2024-02-26T01:41:15;98655.03;;;12.89;52.79
19736;BME280;32064;49.310;8.646;2024-02-26T01:43:41;98663.59;;;12.91;53.41
19736;BME280;32064;49.310;8.646;2024-02-26T01:46:12;98657.34;;;12.92;53.20
19736;BME280;32064;49.310;8.646;2024-02-26T01:48:40;98651.72;;;12.87;54.47
19736;BME280;32064;49.310;8.646;2024-02-26T01:51:06;98660.81;;;12.92;54.03
19736;BME280;32064;49.310;8.646;2024-02-26T01:53:31;98657.16;;;12.93;53.69
19736;BME280;32064;49.310;8.646;2024-02-26T01:55:57;98657.34;;;13.00;53.59
19736;BME280;32064;49.310;8.646;2024-02-26T01:58:23;98649.91;;;13.03;53.93
19736;BME280;32064;49.310;8.646;2024-02-26T02:00:49;98660.81;;;13.09;54.00
19736;BME280;32064;49.310;8.646;2024-02-26T02:03:14;98656.53;;;12.99;53.80
19736;BME280;32064;49.310;8.646;2024-02-26T02:05:40;98658.66;;;13.04;53.56
19736;BME280;32064;49.310;8.646;2024-02-26T02:08:08;98666.91;;;13.09;53.34
19736;BME280;32064;49.310;8.646;2024-02-26T02:10:35;98658.81;;;13.11;54.01
19736;BME280;32064;49.310;8.646;2024-02-26T02:13:00;98659.66;;;13.11;53.58
19736;BME280;32064;49.310;8.646;2024-02-26T02:15:25;98664.41;;;13.08;54.52
19736;BME280;32064;49.310;8.646;2024-02-26T02:17:51;98656.81;;;13.13;54.26
19736;BME280;32064;49.310;8.646;2024-02-26T02:20:17;98665.56;;;13.13;53.73
19736;BME280;32064;49.310;8.646;2024-02-26T02:22:44;98663.91;;;13.12;53.52
19736;BME280;32064;49.310;8.646;2024-02-26T02:25:10;98662.91;;;13.13;54.88
19736;BME280;32064;49.310;8.646;2024-02-26T02:27:35;98665.56;;;13.13;53.72
19736;BME280;32064;49.310;8.646;2024-02-26T02:30:01;98671.50;;;13.15;53.76
19736;BME280;32064;49.310;8.646;2024-02-26T02:32:27;98670.00;;;13.21;54.15
19736;BME280;32064;49.310;8.646;2024-02-26T02:34:54;98670.69;;;13.23;54.93
19736;BME280;32064;49.310;8.646;2024-02-26T02:37:19;98666.91;;;13.25;54.05
19736;BME280;32064;49.310;8.646;2024-02-26T02:39:45;98664.25;;;13.17;53.80
19736;BME280;32064;49.310;8.646;2024-02-26T02:42:10;98667.03;;;13.16;54.06
19736;BME280;32064;49.310;8.646;2024-02-26T02:44:36;98663.59;;;13.15;54.13
19736;BME280;32064;49.310;8.646;2024-02-26T02:47:01;98662.91;;;13.13;54.86
19736;BME280;32064;49.310;8.646;2024-02-26T02:49:26;98662.75;;;13.15;54.61
19736;BME280;32064;49.310;8.646;2024-02-26T02:51:52;98659.44;;;13.21;54.58
19736;BME280;32064;49.310;8.646;2024-02-26T02:54:19;98659.81;;;13.26;54.36
19736;BME280;32064;49.310;8.646;2024-02-26T02:56:45;98665.41;;;13.31;54.78
19736;BME280;32064;49.310;8.646;2024-02-26T02:59:10;98650.88;;;13.35;55.30
19736;BME280;32064;49.310;8.646;2024-02-26T03:01:35;98664.06;;;13.35;54.74
19736;BME280;32064;49.310;8.646;2024-02-26T03:04:01;98656.81;;;13.37;55.07
19736;BME280;32064;49.310;8.646;2024-02-26T03:06:26;98663.25;;;13.35;55.62
19736;BME280;32064;49.310;8.646;2024-02-26T03:08:53;98665.06;;;13.34;55.50
19736;BME280;32064;49.310;8.646;2024-02-26T03:11:19;98663.25;;;13.35;55.31
19736;BME280;32064;49.310;8.646;2024-02-26T03:13:45;98673.97;;;13.33;55.58
19736;BME280;32064;49.310;8.646;2024-02-26T03:16:11;98674.00;;;13.25;55.61
19736;BME280;32064;49.310;8.646;2024-02-26T03:18:39;98671.69;;;13.22;55.68
19736;BME280;32064;49.310;8.646;2024-02-26T03:21:05;98680.44;;;13.22;56.09
19736;BME280;32064;49.310;8.646;2024-02-26T03:23:30;98683.22;;;13.21;56.66
19736;BME280;32064;49.310;8.646;2024-02-26T03:25:58;98685.53;;;13.24;56.43
19736;BME280;32064;49.310;8.646;2024-02-26T03:28:23;98681.25;;;13.23;56.28
19736;BME280;32064;49.310;8.646;2024-02-26T03:30:48;98672.34;;;13.08;57.09
19736;BME280;32064;49.310;8.646;2024-02-26T03:33:14;98689.66;;;13.18;57.28
19736;BME280;32064;49.310;8.646;2024-02-26T03:35:39;98687.19;;;13.17;57.24
19736;BME280;32064;49.310;8.646;2024-02-26T03:38:05;98677.13;;;13.12;56.66
19736;BME280;32064;49.310;8.646;2024-02-26T03:40:30;98672.66;;;13.13;57.16
19736;BME280;32064;49.310;8.646;2024-02-26T03:42:55;98668.19;;;13.13;57.10
19736;BME280;32064;49.310;8.646;2024-02-26T03:45:22;98658.81;;;13.11;56.91
19736;BME280;32064;49.310;8.646;2024-02-26T03:47:48;98655.66;;;13.07;58.38
19736;BME280;32064;49.310;8.646;2024-02-26T03:50:13;98655.84;;;13.06;58.52
19736;BME280;32064;49.310;8.646;2024-02-26T03:52:38;98658.31;;;12.99;58.67
19736;BME280;32064;49.310;8.646;2024-02-26T03:55:04;98659.66;;;12.95;58.88
19736;BME280;32064;49.310;8.646;2024-02-26T03:57:29;98653.56;;;13.02;58.57
19736;BME280;32064;49.310;8.646;2024-02-26T03:59:56;98656.34;;;12.93;59.74
19736;BME280;32064;49.310;8.646;2024-02-26T04:02:21;98650.25;;;13.00;59.86
19736;BME280;32064;49.310;8.646;2024-02-26T04:04:48;98647.94;;;12.97;59.45
19736;BME280;32064;49.310;8.646;2024-02-26T04:07:14;98643.97;;;12.93;59.80
19736;BME280;32064;49.310;8.646;2024-02-26T04:09:39;98634.56;;;12.91;59.22
19736;BME280;32064;49.310;8.646;2024-02-26T04:12:05;98637.25;;;12.83;58.79
19736;BME280;32064;49.310;8.646;2024-02-26T04:14:30;98635.41;;;12.75;60.67
19736;BME280;32064;49.310;8.646;2024-02-26T04:16:56;98631.97;;;12.74;59.89
19736;BME280;32064;49.310;8.646;2024-02-26T04:19:21;98627.84;;;12.64;60.62
19736;BME280;32064;49.310;8.646;2024-02-26T04:21:46;98623.72;;;12.69;60.13
19736;BME280;32064;49.310;8.646;2024-02-26T04:24:12;98620.25;;;12.69;59.25
19736;BME280;32064;49.310;8.646;2024-02-26T04:26:37;98622.22;;;12.67;59.73
19736;BME280;32064;49.310;8.646;2024-02-26T04:29:02;98626.34;;;12.61;61.51
19736;BME280;32064;49.310;8.646;2024-02-26T04:31:28;98620.75;;;12.64;59.72
19736;BME280;32064;49.310;8.646;2024-02-26T04:33:53;98616.47;;;12.63;60.94
19736;BME280;32064;49.310;8.646;2024-02-26T04:36:19;98618.44;;;12.53;61.44
19736;BME280;32064;49.310;8.646;2024-02-26T04:38:44;98608.88;;;12.44;61.01
19736;BME280;32064;49.310;8.646;2024-02-26T04:41:10;98612.66;;;12.41;62.19
19736;BME280;32064;49.310;8.646;2024-02-26T04:43:36;98612.66;;;12.41;61.45
19736;BME280;32064;49.310;8.646;2024-02-26T04:46:09;98604.25;;;12.29;61.70
19736;BME280;32064;49.310;8.646;2024-02-26T04:48:37;98609.84;;;12.18;63.00
19736;BME280;32064;49.310;8.646;2024-02-26T04:51:07;98599.97;;;12.20;61.96
19736;BME280;32064;49.310;8.646;2024-02-26T04:53:33;98601.25;;;12.16;62.86
19736;BME280;32064;49.310;8.646;2024-02-26T04:55:58;98603.09;;;12.24;62.13
19736;BME280;32064;49.310;8.646;2024-02-26T04:58:23;98597.47;;;12.27;61.41
19736;BME280;32064;49.310;8.646;2024-02-26T05:00:49;98600.44;;;12.16;63.24
19736;BME280;32064;49.310;8.646;2024-02-26T05:03:14;98604.91;;;12.23;61.97
19736;BME280;32064;49.310;8.646;2024-02-26T05:05:42;98605.22;;;12.20;63.18
19736;BME280;32064;49.310;8.646;2024-02-26T05:08:08;98607.53;;;12.23;61.63
19736;BME280;32064;49.310;8.646;2024-02-26T05:10:33;98620.19;;;12.20;61.53
19736;BME280;32064;49.310;8.646;2024-02-26T05:12:59;98619.63;;;11.91;64.70
19736;BME280;32064;49.310;8.646;2024-02-26T05:15:25;98615.09;;;12.10;63.07
19736;BME280;32064;49.310;8.646;2024-02-26T05:17:50;98620.03;;;12.13;63.40
19736;BME280;32064;49.310;8.646;2024-02-26T05:20:16;98617.53;;;11.95;62.63
19736;BME280;32064;49.310;8.646;2024-02-26T05:22:41;98623.75;;;11.86;63.08
19736;BME280;32064;49.310;8.646;2024-02-26T05:25:07;98610.75;;;11.93;63.31
19736;BME280;32064;49.310;8.646;2024-02-26T05:27:33;98623.13;;;11.92;63.83
19736;BME280;32064;49.310;8.646;2024-02-26T05:29:58;98624.59;;;11.86;64.90
19736;BME280;32064;49.310;8.646;2024-02-26T05:32:23;98617.44;;;11.79;64.49
19736;BME280;32064;49.310;8.646;2024-02-26T05:34:49;98623.75;;;11.86;63.77
19736;BME280;32064;49.310;8.646;2024-02-26T05:37:14;98627.03;;;11.88;63.53
19736;BME280;32064;49.310;8.646;2024-02-26T05:39:39;98626.00;;;11.73;63.60
19736;BME280;32064;49.310;8.646;2024-02-26T05:42:05;98627.16;;;11.78;64.17
19736;BME280;32064;49.310;8.646;2024-02-26T05:44:30;98630.75;;;11.77;64.94
19736;BME280;32064;49.310;8.646;2024-02-26T05:46:56;98627.13;;;11.70;64.66
19736;BME280;32064;49.310;8.646;2024-02-26T05:49:22;98638.63;;;11.69;64.71
19736;BME280;32064;49.310;8.646;2024-02-26T05:51:47;98647.41;;;11.78;63.57
19736;BME280;32064;49.310;8.646;2024-02-26T05:54:13;98642.22;;;11.60;64.87
19736;BME280;32064;49.310;8.646;2024-02-26T05:56:39;98655.78;;;11.73;65.28
19736;BME280;32064;49.310;8.646;2024-02-26T05:59:04;98651.03;;;11.77;65.00
19736;BME280;32064;49.310;8.646;2024-02-26T06:01:30;98664.88;;;11.79;65.54
19736;BME280;32064;49.310;8.646;2024-02-26T06:03:56;98667.81;;;11.76;63.95
19736;BME280;32064;49.310;8.646;2024-02-26T06:06:21;98671.78;;;11.80;65.26
19736;BME280;32064;49.310;8.646;2024-02-26T06:08:48;98685.63;;;11.82;65.92
19736;BME280;32064;49.310;8.646;2024-02-26T06:11:14;98684.44;;;11.76;65.94
19736;BME280;32064;49.310;8.646;2024-02-26T06:13:39;98687.53;;;11.72;65.47
19736;BME280;32064;49.310;8.646;2024-02-26T06:16:05;98696.16;;;11.82;65.57
19736;BME280;32064;49.310;8.646;2024-02-26T06:18:31;98703.38;;;11.80;64.24
19736;BME280;32064;49.310;8.646;2024-02-26T06:20:56;98709.94;;;11.67;66.25
19736;BME280;32064;49.310;8.646;2024-02-26T06:23:21;98724.97;;;11.75;65.76
19736;BME280;32064;49.310;8.646;2024-02-26T06:25:47;98725.97;;;11.82;65.79
19736;BME280;32064;49.310;8.646;2024-02-26T06:28:13;98730.94;;;11.85;64.90
19736;BME280;32064;49.310;8.646;2024-02-26T06:30:38;98725.59;;;11.77;65.97
19736;BME280;32064;49.310;8.646;2024-02-26T06:33:04;98729.28;;;11.84;65.88
19736;BME280;32064;49.310;8.646;2024-02-26T06:35:29;98731.91;;;11.84;64.84
19736;BME280;32064;49.310;8.646;2024-02-26T06:37:55;98730.31;;;11.91;65.92
19736;BME280;32064;49.310;8.646;2024-02-26T06:40:21;98733.06;;;11.82;66.90
19736;BME280;32064;49.310;8.646;2024-02-26T06:42:46;98732.38;;;11.80;65.54
19736;BME280;32064;49.310;8.646;2024-02-26T06:45:11;98735.19;;;11.78;67.06
19736;BME280;32064;49.310;8.646;2024-02-26T06:47:37;98733.38;;;11.79;65.50
19736;BME280;32064;49.310;8.646;2024-02-26T06:50:02;98739.97;;;11.83;65.60
19736;BME280;32064;49.310;8.646;2024-02-26T06:52:28;98735.53;;;11.83;65.63
19736;BME280;32064;49.310;8.646;2024-02-26T06:54:53;98734.88;;;11.81;65.41
19736;BME280;32064;49.310;8.646;2024-02-26T06:57:19;98743.66;;;11.90;66.02
19736;BME280;32064;49.310;8.646;2024-02-26T06:59:45;98739.22;;;11.90;65.32
19736;BME280;32064;49.310;8.646;2024-02-26T07:02:13;98744.16;;;11.94;66.01
19736;BME280;32064;49.310;8.646;2024-02-26T07:04:38;98752.91;;;11.94;66.90
19736;BME280;32064;49.310;8.646;2024-02-26T07:07:04;98748.63;;;11.93;65.26
19736;BME280;32064;49.310;8.646;2024-02-26T07:09:29;98759.34;;;12.00;65.89
19736;BME280;32064;49.310;8.646;2024-02-26T07:11:55;98766.75;;;11.96;67.23
19736;BME280;32064;49.310;8.646;2024-02-26T07:14:20;98767.09;;;12.01;66.20
19736;BME280;32064;49.310;8.646;2024-02-26T07:16:45;98770.06;;;11.98;66.26
19736;BME280;32064;49.310;8.646;2024-02-26T07:19:11;98763.59;;;11.93;66.32
19736;BME280;32064;49.310;8.646;2024-02-26T07:21:36;98767.06;;;11.93;67.68
19736;BME280;32064;49.310;8.646;2024-02-26T07:24:02;98766.44;;;11.99;66.46
19736;BME280;32064;49.310;8.646;2024-02-26T07:26:27;98764.56;;;11.91;67.77
19736;BME280;32064;49.310;8.646;2024-02-26T07:28:55;98771.19;;;11.96;65.87
19736;BME280;32064;49.310;8.646;2024-02-26T07:31:20;98781.28;;;12.00;66.52
19736;BME280;32064;49.310;8.646;2024-02-26T07:33:46;98780.59;;;11.98;66.34
19736;BME280;32064;49.310;8.646;2024-02-26T07:36:11;98774.69;;;12.04;66.51
19736;BME280;32064;49.310;8.646;2024-02-26T07:38:37;98778.66;;;12.00;66.02
19736;BME280;32064;49.310;8.646;2024-02-26T07:41:02;98777.28;;;11.96;68.32
19736;BME280;32064;49.310;8.646;2024-02-26T07:43:28;98775.66;;;11.95;67.32
19736;BME280;32064;49.310;8.646;2024-02-26T07:45:53;98769.50;;;11.86;67.78
19736;BME280;32064;49.310;8.646;2024-02-26T07:48:19;98775.28;;;11.90;67.43
19736;BME280;32064;49.310;8.646;2024-02-26T07:50:44;98775.13;;;11.91;66.59
19736;BME280;32064;49.310;8.646;2024-02-26T07:53:10;98769.19;;;11.89;66.59
19736;BME280;32064;49.310;8.646;2024-02-26T07:55:35;98772.06;;;11.78;66.92
19736;BME280;32064;49.310;8.646;2024-02-26T07:58:00;98769.56;;;11.95;66.38
19736;BME280;32064;49.310;8.646;2024-02-26T08:00:26;98776.47;;;11.96;66.39
19736;BME280;32064;49.310;8.646;2024-02-26T08:02:51;98772.69;;;11.98;67.28
19736;BME280;32064;49.310;8.646;2024-02-26T08:05:17;98776.56;;;11.86;67.31
19736;BME280;32064;49.310;8.646;2024-02-26T08:07:42;98779.72;;;11.89;67.87
19736;BME280;32064;49.310;8.646;2024-02-26T08:10:08;98773.88;;;11.78;67.60
19736;BME280;32064;49.310;8.646;2024-02-26T08:12:33;98783.19;;;11.90;67.09
19736;BME280;32064;49.310;8.646;2024-02-26T08:14:59;98775.03;;;12.01;68.74
19736;BME280;32064;49.310;8.646;2024-02-26T08:17:25;98784.78;;;12.09;67.87
19736;BME280;32064;49.310;8.646;2024-02-26T08:19:51;98789.47;;;12.23;69.05
19736;BME280;32064;49.310;8.646;2024-02-26T08:22:16;98793.09;;;12.30;67.62
19736;BME280;32064;49.310;8.646;2024-02-26T08:24:43;98793.78;;;12.32;66.86
19736;BME280;32064;49.310;8.646;2024-02-26T08:27:08;98793.41;;;12.27;68.10
19736;BME280;32064;49.310;8.646;2024-02-26T08:29:34;98791.97;;;12.33;67.44
19736;BME280;32064;49.310;8.646;2024-02-26T08:31:59;98790.97;;;12.34;68.74
19736;BME280;32064;49.310;8.646;2024-02-26T08:34:25;98793.75;;;12.24;69.70
19736;BME280;32064;49.310;8.646;2024-02-26T08:36:50;98793.00;;;12.40;68.61
19736;BME280;32064;49.310;8.646;2024-02-26T08:39:16;98792.16;;;12.48;68.67
19736;BME280;32064;49.310;8.646;2024-02-26T08:41:43;98784.78;;;12.51;67.71
19736;BME280;32064;49.310;8.646;2024-02-26T08:44:09;98781.78;;;12.46;67.50
19736;BME280;32064;49.310;8.646;2024-02-26T08:46:34;98790.22;;;12.58;66.30
19736;BME280;32064;49.310;8.646;2024-02-26T08:49:00;98786.91;;;12.56;67.33
19736;BME280;32064;49.310;8.646;2024-02-26T08:51:25;98791.19;;;12.49;68.01
19736;BME280;32064;49.310;8.646;2024-02-26T08:53:50;98796.50;;;12.57;67.20
19736;BME280;32064;49.310;8.646;2024-02-26T08:56:16;98812.63;;;12.54;66.59
19736;BME280;32064;49.310;8.646;2024-02-26T08:58:45;98808.06;;;12.64;66.65
19736;BME280;32064;49.310;8.646;2024-02-26T09:01:13;98804.59;;;12.64;66.48
19736;BME280;32064;49.310;8.646;2024-02-26T09:03:39;98812.34;;;12.65;67.60
19736;BME280;32064;49.310;8.646;2024-02-26T09:06:05;98810.66;;;12.56;67.36
19736;BME280;32064;49.310;8.646;2024-02-26T09:08:32;98820.59;;;12.70;67.39
19736;BME280;32064;49.310;8.646;2024-02-26T09:10:57;98812.69;;;12.70;67.37
19736;BME280;32064;49.310;8.646;2024-02-26T09:13:23;98811.72;;;12.71;67.06
19736;BME280;32064;49.310;8.646;2024-02-26T09:15:48;98811.00;;;12.53;68.89
19736;BME280;32064;49.310;8.646;2024-02-26T09:18:16;98816.28;;;12.61;68.11
19736;BME280;32064;49.310;8.646;2024-02-26T09:20:42;98822.91;;;12.73;67.53
19736;BME280;32064;49.310;8.646;2024-02-26T09:23:08;98818.81;;;12.79;66.62
19736;BME280;32064;49.310;8.646;2024-02-26T09:25:34;98824.09;;;12.87;66.27
19736;BME280;32064;49.310;8.646;2024-02-26T09:28:00;98830.53;;;12.85;67.76
19736;BME280;32064;49.310;8.646;2024-02-26T09:30:26;98825.47;;;12.91;66.40
19736;BME280;32064;49.310;8.646;2024-02-26T09:32:51;98828.06;;;12.83;67.56
19736;BME280;32064;49.310;8.646;2024-02-26T09:35:16;98832.22;;;12.94;66.10
19736;BME280;32064;49.310;8.646;2024-02-26T09:37:42;98828.72;;;12.93;67.33
19736;BME280;32064;49.310;8.646;2024-02-26T09:40:09;98836.31;;;12.80;67.06
19736;BME280;32064;49.310;8.646;2024-02-26T09:42:37;98840.13;;;12.86;67.57
19736;BME280;32064;49.310;8.646;2024-02-26T09:45:05;98842.06;;;12.75;66.47
19736;BME280;32064;49.310;8.646;2024-02-26T09:47:34;98846.06;;;12.79;67.47
19736;BME280;32064;49.310;8.646;2024-02-26T09:50:01;98853.25;;;12.69;66.71
19736;BME280;32064;49.310;8.646;2024-02-26T09:52:28;98844.88;;;12.74;67.46
19736;BME280;32064;49.310;8.646;2024-02-26T09:54:54;98846.19;;;12.78;67.43
19736;BME280;32064;49.310;8.646;2024-02-26T09:57:19;98837.16;;;12.89;67.57
19736;BME280;32064;49.310;8.646;2024-02-26T09:59:51;98834.88;;;13.10;66.61
19736;BME280;32064;49.310;8.646;2024-02-26T10:02:19;98836.28;;;13.31;67.16
19736;BME280;32064;49.310;8.646;2024-02-26T10:04:46;98834.63;;;13.79;66.70
19736;BME280;32064;49.310;8.646;2024-02-26T10:07:13;98833.00;;;14.25;66.05
19736;BME280;32064;49.310;8.646;2024-02-26T10:09:39;98839.38;;;14.47;66.44
19736;BME280;32064;49.310;8.646;2024-02-26T10:12:06;98839.63;;;15.00;65.12
19736;BME280;32064;49.310;8.646;2024-02-26T10:14:32;98837.19;;;15.21;65.74
19736;BME280;32064;49.310;8.646;2024-02-26T10:16:58;98839.19;;;15.42;64.99
19736;BME280;32064;49.310;8.646;2024-02-26T10:19:28;98838.06;;;15.37;62.77
19736;BME280;32064;49.310;8.646;2024-02-26T10:21:59;98835.28;;;15.53;61.50
19736;BME280;32064;49.310;8.646;2024-02-26T10:24:26;98841.72;;;15.59;62.34
19736;BME280;32064;49.310;8.646;2024-02-26T10:26:52;98835.66;;;15.73;62.57
19736;BME280;32064;49.310;8.646;2024-02-26T10:29:21;98847.00;;;15.82;60.75
19736;BME280;32064;49.310;8.646;2024-02-26T10:31:47;98849.13;;;15.86;60.89
19736;BME280;32064;49.310;8.646;2024-02-26T10:34:12;98849.94;;;15.87;61.51
19736;BME280;32064;49.310;8.646;2024-02-26T10:36:39;98852.25;;;15.67;61.24
19736;BME280;32064;49.310;8.646;2024-02-26T10:39:09;98860.69;;;15.70;61.38
19736;BME280;32064;49.310;8.646;2024-02-26T10:41:34;98855.78;;;15.59;61.21
19736;BME280;32064;49.310;8.646;2024-02-26T10:44:00;98855.97;;;15.58;60.47
19736;BME280;32064;49.310;8.646;2024-02-26T10:46:26;98845.94;;;15.91;61.44
19736;BME280;32064;49.310;8.646;2024-02-26T10:48:52;98843.38;;;16.27;60.08
19736;BME280;32064;49.310;8.646;2024-02-26T10:51:27;98840.75;;;16.12;59.53
19736;BME280;32064;49.310;8.646;2024-02-26T10:53:59;98846.50;;;16.16;59.09
19736;BME280;32064;49.310;8.646;2024-02-26T10:56:28;98857.59;;;16.34;60.40
19736;BME280;32064;49.310;8.646;2024-02-26T10:58:57;98860.16;;;16.43;60.55
19736;BME280;32064;49.310;8.646;2024-02-26T11:01:24;98864.81;;;16.41;59.45
19736;BME280;32064;49.310;8.646;2024-02-26T11:03:51;98871.88;;;16.33;59.02
19736;BME280;32064;49.310;8.646;2024-02-26T11:06:18;98875.34;;;16.34;59.07
19736;BME280;32064;49.310;8.646;2024-02-26T11:08:48;98876.09;;;16.28;59.46
19736;BME280;32064;49.310;8.646;2024-02-26T11:11:14;98867.66;;;16.39;59.88
19736;BME280;32064;49.310;8.646;2024-02-26T11:13:42;98881.03;;;16.46;58.89
19736;BME280;32064;49.310;8.646;2024-02-26T11:16:11;98878.72;;;16.43;58.61
19736;BME280;32064;49.310;8.646;2024-02-26T11:18:38;98885.03;;;16.27;58.10
19736;BME280;32064;49.310;8.646;2024-02-26T11:21:05;98886.56;;;16.06;58.48
19736;BME280;32064;49.310;8.646;2024-02-26T11:23:31;98887.38;;;16.07;59.53
19736;BME280;32064;49.310;8.646;2024-02-26T11:26:01;98876.97;;;16.05;59.11
19736;BME280;32064;49.310;8.646;2024-02-26T11:28:27;98873.47;;;16.05;59.36
19736;BME280;32064;49.310;8.646;2024-02-26T11:30:54;98874.69;;;16.02;58.11
19736;BME280;32064;49.310;8.646;2024-02-26T11:33:20;98881.09;;;16.23;58.69
19736;BME280;32064;49.310;8.646;2024-02-26T11:35:45;98876.09;;;16.43;58.55
19736;BME280;32064;49.310;8.646;2024-02-26T11:38:20;98873.22;;;16.44;58.96
19736;BME280;32064;49.310;8.646;2024-02-26T11:40:47;98873.44;;;16.43;58.01
19736;BME280;32064;49.310;8.646;2024-02-26T11:43:13;98872.03;;;16.32;56.83
19736;BME280;32064;49.310;8.646;2024-02-26T11:48:04;98881.47;;;16.20;56.87
19736;BME280;32064;49.310;8.646;2024-02-26T11:50:38;98880.47;;;16.21;58.20
19736;BME280;32064;49.310;8.646;2024-02-26T11:58:43;98867.66;;;16.54;57.72
19736;BME280;32064;49.310;8.646;2024-02-26T12:04:07;98870.56;;;16.89;55.63
19736;BME280;32064;49.310;8.646;2024-02-26T12:06:49;98872.41;;;16.73;56.06
19736;BME280;32064;49.310;8.646;2024-02-26T12:09:30;98875.88;;;16.74;56.16
19736;BME280;32064;49.310;8.646;2024-02-26T12:11:56;98878.22;;;16.98;56.00
19736;BME280;32064;49.310;8.646;2024-02-26T12:14:28;98883.25;;;17.08;56.23
19736;BME280;32064;49.310;8.646;2024-02-26T12:16:55;98897.91;;;17.04;55.88
19736;BME280;32064;49.310;8.646;2024-02-26T12:19:21;98895.19;;;16.97;57.07
19736;BME280;32064;49.310;8.646;2024-02-26T12:21:51;98900.22;;;17.07;56.01
19736;BME280;32064;49.310;8.646;2024-02-26T12:24:18;98895.19;;;16.97;55.58
19736;BME280;32064;49.310;8.646;2024-02-26T12:26:43;98895.41;;;16.96;55.63
19736;BME280;32064;49.310;8.646;2024-02-26T12:29:09;98904.97;;;17.12;56.42
19736;BME280;32064;49.310;8.646;2024-02-26T12:31:36;98899.59;;;17.26;56.88
19736;BME280;32064;49.310;8.646;2024-02-26T12:34:03;98899.38;;;17.43;57.12
19736;BME280;32064;49.310;8.646;2024-02-26T12:36:29;98905.22;;;17.53;57.16
19736;BME280;32064;49.310;8.646;2024-02-26T12:38:55;98900.59;;;17.62;56.61
19736;BME280;32064;49.310;8.646;2024-02-26T12:41:21;98901.47;;;17.90;55.83
19736;BME280;32064;49.310;8.646;2024-02-26T12:43:47;98895.66;;;18.08;55.87
19736;BME280;32064;49.310;8.646;2024-02-26T12:46:12;98900.78;;;18.03;55.15
19736;BME280;32064;49.310;8.646;2024-02-26T12:48:44;98901.53;;;18.25;53.96
19736;BME280;32064;49.310;8.646;2024-02-26T12:51:12;98899.94;;;18.31;55.35
19736;BME280;32064;49.310;8.646;2024-02-26T12:53:38;98915.19;;;18.44;54.81
19736;BME280;32064;49.310;8.646;2024-02-26T12:56:05;98913.34;;;18.44;54.20
19736;BME280;32064;49.310;8.646;2024-02-26T12:58:31;98909.06;;;18.50;55.00
19736;BME280;32064;49.310;8.646;2024-02-26T13:00:57;98904.66;;;18.63;54.58
19736;BME280;32064;49.310;8.646;2024-02-26T13:03:23;98913.41;;;18.86;53.35
19736;BME280;32064;49.310;8.646;2024-02-26T13:05:50;98917.13;;;18.91;53.79